createdAt,value
2018-07-27T00:00:31.535Z,1018.30
2018-07-27T00:01:31.558Z,1018.28
2018-07-27T00:02:31.588Z,1018.31
2018-07-27T00:03:31.620Z,1018.28
2018-07-27T00:04:31.639Z,1018.29
2018-07-27T00:05:31.675Z,1018.26
2018-07-27T00:06:31.707Z,1018.26
2018-07-27T00:07:31.731Z,1018.25
2018-07-27T00:08:31.761Z,1018.24
2018-07-27T00:09:31.788Z,1018.24
2018-07-27T00:10:31.818Z,1018.23
2018-07-27T00:11:31.847Z,1018.20
2018-07-27T00:12:31.875Z,1018.25
2018-07-27T00:13:31.902Z,1018.24
2018-07-27T00:14:31.936Z,1018.27
2018-07-27T00:15:31.959Z,1018.20
2018-07-27T00:16:31.992Z,1018.23
2018-07-27T00:17:32.020Z,1018.22
2018-07-27T00:18:32.052Z,1018.22
2018-07-27T00:19:32.077Z,1018.22
2018-07-27T00:20:32.110Z,1018.21
2018-07-27T00:21:32.129Z,1018.23
2018-07-27T00:22:32.170Z,1018.22
2018-07-27T00:23:32.195Z,1018.20
2018-07-27T00:24:32.223Z,1018.24
2018-07-27T00:25:32.252Z,1018.21
2018-07-27T00:26:32.273Z,1018.24
2018-07-27T00:27:32.308Z,1018.25
2018-07-27T00:28:32.333Z,1018.24
2018-07-27T00:29:32.372Z,1018.23
2018-07-27T00:30:32.390Z,1018.21
2018-07-27T00:31:32.420Z,1018.19
2018-07-27T00:32:32.452Z,1018.22
2018-07-27T00:33:32.482Z,1018.21
2018-07-27T00:34:32.521Z,1018.21
2018-07-27T00:35:32.535Z,1018.20
2018-07-27T00:36:32.562Z,1018.21
2018-07-27T00:37:32.586Z,1018.23
2018-07-27T00:38:32.621Z,1018.27
2018-07-27T00:39:32.649Z,1018.28
2018-07-27T00:40:32.681Z,1018.28
2018-07-27T00:41:32.708Z,1018.29
2018-07-27T00:42:32.733Z,1018.28
2018-07-27T00:43:32.767Z,1018.26
2018-07-27T00:44:32.793Z,1018.24
2018-07-27T00:45:32.821Z,1018.24
2018-07-27T00:46:32.849Z,1018.27
2018-07-27T00:47:32.881Z,1018.27
2018-07-27T00:48:32.902Z,1018.24
2018-07-27T00:49:32.935Z,1018.23
2018-07-27T00:50:32.959Z,1018.18
2018-07-27T00:51:32.993Z,1018.23
2018-07-27T00:52:33.020Z,1018.22
2018-07-27T00:53:33.051Z,1018.18
2018-07-27T00:54:33.077Z,1018.17
2018-07-27T00:55:33.107Z,1018.21
2018-07-27T00:56:33.131Z,1018.21
2018-07-27T00:57:33.164Z,1018.17
2018-07-27T00:58:33.193Z,1018.16
2018-07-27T00:59:33.217Z,1018.13
2018-07-27T01:00:33.249Z,1018.16
2018-07-27T01:01:33.273Z,1018.16
2018-07-27T01:02:33.304Z,1018.11
2018-07-27T01:03:33.331Z,1018.12
2018-07-27T01:04:33.362Z,1018.14
2018-07-27T01:05:33.390Z,1018.14
2018-07-27T01:06:33.420Z,1018.15
2018-07-27T01:07:33.451Z,1018.13
2018-07-27T01:08:33.475Z,1018.12
2018-07-27T01:09:33.501Z,1018.10
2018-07-27T01:10:33.531Z,1018.11
2018-07-27T01:11:33.562Z,1018.12
2018-07-27T01:12:33.591Z,1018.12
2018-07-27T01:13:33.614Z,1018.15
2018-07-27T01:14:33.645Z,1018.15
2018-07-27T01:15:33.671Z,1018.12
2018-07-27T01:16:33.698Z,1018.13
2018-07-27T01:17:33.733Z,1018.08
2018-07-27T01:18:33.767Z,1018.13
2018-07-27T01:19:33.785Z,1018.09
2018-07-27T01:20:33.815Z,1018.12
2018-07-27T01:21:33.843Z,1018.09
2018-07-27T01:22:33.870Z,1018.12
2018-07-27T01:23:33.902Z,1018.07
2018-07-27T01:24:33.928Z,1018.03
2018-07-27T01:25:33.950Z,1018.04
2018-07-27T01:26:33.982Z,1018.02
2018-07-27T01:27:34.012Z,1018.02
2018-07-27T01:28:34.037Z,1018.06
2018-07-27T01:29:34.068Z,1018.06
2018-07-27T01:30:34.094Z,1018.07
2018-07-27T01:31:34.129Z,1018.08
2018-07-27T01:32:34.154Z,1018.09
2018-07-27T01:33:34.184Z,1018.08
2018-07-27T01:34:34.216Z,1018.08
2018-07-27T01:35:34.236Z,1018.09
2018-07-27T01:36:34.264Z,1018.08
2018-07-27T01:37:34.296Z,1018.10
2018-07-27T01:38:34.367Z,1018.08
2018-07-27T01:39:34.360Z,1018.06
2018-07-27T01:40:34.384Z,1018.10
2018-07-27T01:41:34.412Z,1018.09
2018-07-27T01:42:34.436Z,1018.07
2018-07-27T01:43:34.463Z,1018.07
2018-07-27T01:44:34.494Z,1018.11
2018-07-27T01:45:34.524Z,1018.11
2018-07-27T01:46:34.550Z,1018.15
2018-07-27T01:47:34.582Z,1018.11
2018-07-27T01:48:34.604Z,1018.09
2018-07-27T01:49:34.637Z,1018.11
2018-07-27T01:50:34.662Z,1018.09
2018-07-27T01:51:34.688Z,1018.09
2018-07-27T01:52:34.717Z,1018.10
2018-07-27T01:53:34.742Z,1018.10
2018-07-27T01:54:34.776Z,1018.05
2018-07-27T01:55:34.805Z,1018.06
2018-07-27T01:56:34.826Z,1018.04
2018-07-27T01:57:34.858Z,1018.04
2018-07-27T01:58:34.882Z,1018.03
2018-07-27T01:59:34.913Z,1018.04
2018-07-27T02:00:34.945Z,1018.02
2018-07-27T02:01:34.974Z,1018.04
2018-07-27T02:02:34.995Z,1018.05
2018-07-27T02:03:35.031Z,1018.03
2018-07-27T02:04:35.054Z,1018.02
2018-07-27T02:05:35.083Z,1018.03
2018-07-27T02:06:35.116Z,1018.00
2018-07-27T02:07:35.142Z,1018.02
2018-07-27T02:08:35.165Z,1018.03
2018-07-27T02:09:35.198Z,1017.99
2018-07-27T02:10:35.222Z,1017.99
2018-07-27T02:11:35.254Z,1018.01
2018-07-27T02:12:35.278Z,1018.00
2018-07-27T02:13:35.308Z,1017.99
2018-07-27T02:14:35.334Z,1017.99
2018-07-27T02:15:35.367Z,1017.98
2018-07-27T02:16:35.392Z,1017.96
2018-07-27T02:17:35.424Z,1017.93
2018-07-27T02:18:35.446Z,1017.95
2018-07-27T02:19:35.478Z,1017.93
2018-07-27T02:20:35.503Z,1017.92
2018-07-27T02:21:35.538Z,1017.87
2018-07-27T02:22:35.558Z,1017.91
2018-07-27T02:23:35.599Z,1017.91
2018-07-27T02:24:35.617Z,1017.90
2018-07-27T02:25:35.649Z,1017.86
2018-07-27T02:26:35.671Z,1017.86
2018-07-27T02:27:35.703Z,1017.91
2018-07-27T02:28:35.724Z,1017.89
2018-07-27T02:29:35.752Z,1017.86
2018-07-27T02:30:35.784Z,1017.87
2018-07-27T02:31:35.817Z,1017.86
2018-07-27T02:32:35.836Z,1017.85
2018-07-27T02:33:35.869Z,1017.80
2018-07-27T02:34:35.896Z,1017.81
2018-07-27T02:35:35.921Z,1017.83
2018-07-27T02:36:35.953Z,1017.81
2018-07-27T02:37:35.979Z,1017.77
2018-07-27T02:38:36.008Z,1017.77
2018-07-27T02:39:36.032Z,1017.75
2018-07-27T02:40:36.060Z,1017.79
2018-07-27T02:41:36.089Z,1017.77
2018-07-27T02:42:36.119Z,1017.81
2018-07-27T02:43:36.142Z,1017.86
2018-07-27T02:44:36.180Z,1017.81
2018-07-27T02:45:36.203Z,1017.82
2018-07-27T02:46:36.228Z,1017.85
2018-07-27T02:47:36.255Z,1017.82
2018-07-27T02:48:36.283Z,1017.81
2018-07-27T02:49:36.313Z,1017.83
2018-07-27T02:50:36.342Z,1017.81
2018-07-27T02:51:36.375Z,1017.78
2018-07-27T02:52:36.394Z,1017.80
2018-07-27T02:53:36.426Z,1017.79
2018-07-27T02:54:36.450Z,1017.76
2018-07-27T02:55:36.480Z,1017.75
2018-07-27T02:56:36.502Z,1017.73
2018-07-27T02:57:36.538Z,1017.74
2018-07-27T02:58:36.570Z,1017.74
2018-07-27T02:59:36.591Z,1017.73
2018-07-27T03:00:36.617Z,1017.73
2018-07-27T03:01:36.650Z,1017.71
2018-07-27T03:02:36.672Z,1017.68
2018-07-27T03:03:36.708Z,1017.71
2018-07-27T03:04:36.729Z,1017.69
2018-07-27T03:05:36.756Z,1017.69
2018-07-27T03:06:36.790Z,1017.67
2018-07-27T03:07:36.816Z,1017.66
2018-07-27T03:08:36.841Z,1017.66
2018-07-27T03:09:36.962Z,1017.68
2018-07-27T03:10:36.894Z,1017.67
2018-07-27T03:11:36.929Z,1017.66
2018-07-27T03:12:36.947Z,1017.67
2018-07-27T03:13:36.978Z,1017.65
2018-07-27T03:14:37.006Z,1017.71
2018-07-27T03:15:37.036Z,1017.69
2018-07-27T03:16:37.062Z,1017.68
2018-07-27T03:17:37.084Z,1017.69
2018-07-27T03:18:37.116Z,1017.68
2018-07-27T03:19:37.147Z,1017.66
2018-07-27T03:20:37.168Z,1017.72
2018-07-27T03:21:37.198Z,1017.74
2018-07-27T03:22:37.229Z,1017.74
2018-07-27T03:23:37.256Z,1017.75
2018-07-27T03:24:37.280Z,1017.72
2018-07-27T03:25:37.315Z,1017.74
2018-07-27T03:26:37.338Z,1017.71
2018-07-27T03:27:37.380Z,1017.74
2018-07-27T03:28:37.393Z,1017.71
2018-07-27T03:29:37.418Z,1017.72
2018-07-27T03:30:37.455Z,1017.73
2018-07-27T03:31:37.476Z,1017.71
2018-07-27T03:32:37.506Z,1017.70
2018-07-27T03:33:37.530Z,1017.72
2018-07-27T03:34:37.558Z,1017.72
2018-07-27T03:35:37.586Z,1017.73
2018-07-27T03:36:37.616Z,1017.73
2018-07-27T03:37:37.642Z,1017.72
2018-07-27T03:38:37.665Z,1017.74
2018-07-27T03:39:37.696Z,1017.72
2018-07-27T03:40:37.736Z,1017.75
2018-07-27T03:41:37.750Z,1017.75
2018-07-27T03:42:37.790Z,1017.74
2018-07-27T03:43:37.809Z,1017.71
2018-07-27T03:44:37.834Z,1017.74
2018-07-27T03:45:37.860Z,1017.72
2018-07-27T03:46:37.893Z,1017.76
2018-07-27T03:47:37.925Z,1017.75
2018-07-27T03:48:37.944Z,1017.77
2018-07-27T03:49:37.971Z,1017.75
2018-07-27T03:50:38.000Z,1017.75
2018-07-27T03:51:38.024Z,1017.72
2018-07-27T03:52:38.060Z,1017.74
2018-07-27T03:53:38.081Z,1017.77
2018-07-27T03:54:38.108Z,1017.78
2018-07-27T03:55:38.132Z,1017.76
2018-07-27T03:56:38.162Z,1017.75
2018-07-27T03:57:38.195Z,1017.76
2018-07-27T03:58:38.222Z,1017.74
2018-07-27T03:59:38.244Z,1017.75
2018-07-27T04:00:38.274Z,1017.77
2018-07-27T04:01:38.302Z,1017.82
2018-07-27T04:02:38.330Z,1017.79
2018-07-27T04:03:38.354Z,1017.82
2018-07-27T04:04:38.386Z,1017.85
2018-07-27T04:05:38.412Z,1017.85
2018-07-27T04:06:38.434Z,1017.88
2018-07-27T04:07:38.464Z,1017.87
2018-07-27T04:08:38.510Z,1017.87
2018-07-27T04:09:38.524Z,1017.88
2018-07-27T04:10:38.548Z,1017.89
2018-07-27T04:11:38.574Z,1017.91
2018-07-27T04:12:38.602Z,1017.89
2018-07-27T04:13:38.673Z,1017.92
2018-07-27T04:14:38.662Z,1017.88
2018-07-27T04:15:38.691Z,1017.92
2018-07-27T04:16:38.712Z,1017.88
2018-07-27T04:17:38.744Z,1017.83
2018-07-27T04:18:38.774Z,1017.86
2018-07-27T04:19:38.794Z,1017.85
2018-07-27T04:20:38.824Z,1017.82
2018-07-27T04:21:38.848Z,1017.85
2018-07-27T04:22:38.878Z,1017.83
2018-07-27T04:23:38.900Z,1017.85
2018-07-27T04:24:38.949Z,1017.79
2018-07-27T04:25:38.958Z,1017.81
2018-07-27T04:26:38.984Z,1017.84
2018-07-27T04:27:39.012Z,1017.84
2018-07-27T04:28:39.040Z,1017.79
2018-07-27T04:29:39.076Z,1017.80
2018-07-27T04:30:39.100Z,1017.73
2018-07-27T04:31:39.127Z,1017.80
2018-07-27T04:32:39.157Z,1017.76
2018-07-27T04:33:39.180Z,1017.75
2018-07-27T04:34:39.210Z,1017.81
2018-07-27T04:35:39.292Z,1017.80
2018-07-27T04:36:39.256Z,1017.81
2018-07-27T04:37:39.289Z,1017.78
2018-07-27T04:38:39.319Z,1017.78
2018-07-27T04:39:39.352Z,1017.78
2018-07-27T04:40:39.373Z,1017.79
2018-07-27T04:41:39.412Z,1017.78
2018-07-27T04:42:39.428Z,1017.78
2018-07-27T04:43:39.450Z,1017.78
2018-07-27T04:44:39.482Z,1017.77
2018-07-27T04:45:39.507Z,1017.77
2018-07-27T04:46:39.542Z,1017.81
2018-07-27T04:47:39.563Z,1017.79
2018-07-27T04:48:39.597Z,1017.82
2018-07-27T04:49:39.627Z,1017.83
2018-07-27T04:50:39.646Z,1017.86
2018-07-27T04:51:39.673Z,1017.83
2018-07-27T04:52:39.700Z,1017.90
2018-07-27T04:53:39.730Z,1017.86
2018-07-27T04:54:39.755Z,1017.89
2018-07-27T04:55:39.781Z,1017.86
2018-07-27T04:56:39.946Z,1017.87
2018-07-27T04:57:39.838Z,1017.92
2018-07-27T04:58:39.870Z,1017.89
2018-07-27T04:59:39.898Z,1017.91
2018-07-27T05:00:39.922Z,1017.88
2018-07-27T05:01:39.953Z,1017.88
2018-07-27T05:02:39.975Z,1017.90
2018-07-27T05:03:40.012Z,1017.86
2018-07-27T05:04:40.064Z,1017.90
2018-07-27T05:05:40.056Z,1017.87
2018-07-27T05:06:40.092Z,1017.93
2018-07-27T05:07:40.109Z,1017.93
2018-07-27T05:08:40.142Z,1017.92
2018-07-27T05:09:40.173Z,1017.91
2018-07-27T05:10:40.197Z,1017.93
2018-07-27T05:11:40.222Z,1017.95
2018-07-27T05:12:40.253Z,1017.98
2018-07-27T05:13:40.282Z,1017.99
2018-07-27T05:14:40.309Z,1017.99
2018-07-27T05:15:40.339Z,1017.96
2018-07-27T05:16:40.362Z,1017.98
2018-07-27T05:17:40.391Z,1017.99
2018-07-27T05:18:40.417Z,1017.98
2018-07-27T05:19:40.445Z,1018.00
2018-07-27T05:20:40.474Z,1017.93
2018-07-27T05:21:40.506Z,1017.92
2018-07-27T05:22:40.525Z,1017.93
2018-07-27T05:23:40.553Z,1017.95
2018-07-27T05:24:40.624Z,1017.95
2018-07-27T05:25:40.611Z,1017.94
2018-07-27T05:26:40.636Z,1017.94
2018-07-27T05:27:40.667Z,1017.95
2018-07-27T05:28:40.692Z,1017.97
2018-07-27T05:29:40.721Z,1017.95
2018-07-27T05:30:40.755Z,1017.93
2018-07-27T05:31:40.779Z,1017.93
2018-07-27T05:32:40.806Z,1017.92
2018-07-27T05:33:40.830Z,1017.93
2018-07-27T05:34:40.861Z,1017.91
2018-07-27T05:35:40.882Z,1017.92
2018-07-27T05:36:40.912Z,1017.92
2018-07-27T05:37:40.943Z,1017.92
2018-07-27T05:38:40.972Z,1017.90
2018-07-27T05:39:41.000Z,1017.92
2018-07-27T05:40:41.024Z,1017.97
2018-07-27T05:41:41.051Z,1017.91
2018-07-27T05:42:41.075Z,1017.95
2018-07-27T05:43:41.108Z,1017.97
2018-07-27T05:44:41.127Z,1017.99
2018-07-27T05:45:41.162Z,1018.00
2018-07-27T05:46:41.189Z,1018.00
2018-07-27T05:47:41.212Z,1017.99
2018-07-27T05:48:41.261Z,1018.00
2018-07-27T05:49:41.275Z,1017.96
2018-07-27T05:50:41.299Z,1017.99
2018-07-27T05:51:41.327Z,1017.98
2018-07-27T05:52:41.368Z,1018.02
2018-07-27T05:53:41.387Z,1017.95
2018-07-27T05:54:41.406Z,1017.96
2018-07-27T05:55:41.488Z,1017.97
2018-07-27T05:56:41.462Z,1017.95
2018-07-27T05:57:41.495Z,1017.95
2018-07-27T05:58:41.517Z,1018.01
2018-07-27T05:59:41.547Z,1017.99
2018-07-27T06:00:41.580Z,1017.99
2018-07-27T06:01:41.603Z,1018.00
2018-07-27T06:02:41.689Z,1018.00
2018-07-27T06:03:41.660Z,1018.02
2018-07-27T06:04:41.730Z,1018.00
2018-07-27T06:05:41.716Z,1018.03
2018-07-27T06:06:41.741Z,1018.02
2018-07-27T06:07:41.772Z,1018.01
2018-07-27T06:08:41.807Z,1017.99
2018-07-27T06:09:41.825Z,1017.97
2018-07-27T06:10:41.854Z,1018.00
2018-07-27T06:11:41.881Z,1018.02
2018-07-27T06:12:41.915Z,1018.02
2018-07-27T06:13:41.935Z,1018.01
2018-07-27T06:14:41.961Z,1018.02
2018-07-27T06:15:41.997Z,1018.01
2018-07-27T06:16:42.019Z,1017.97
2018-07-27T06:17:42.047Z,1017.94
2018-07-27T06:18:42.080Z,1017.89
2018-07-27T06:19:42.101Z,1017.87
2018-07-27T06:20:42.127Z,1017.87
2018-07-27T06:21:42.160Z,1017.89
2018-07-27T06:22:42.188Z,1017.88
2018-07-27T06:23:42.231Z,1017.88
2018-07-27T06:24:42.242Z,1017.88
2018-07-27T06:25:42.280Z,1017.89
2018-07-27T06:26:42.304Z,1017.90
2018-07-27T06:27:42.330Z,1017.88
2018-07-27T06:28:42.356Z,1017.90
2018-07-27T06:29:42.382Z,1017.94
2018-07-27T06:30:42.415Z,1017.92
2018-07-27T06:31:42.440Z,1017.92
2018-07-27T06:32:42.464Z,1017.94
2018-07-27T06:33:42.498Z,1017.91
2018-07-27T06:34:42.526Z,1017.89
2018-07-27T06:35:42.548Z,1017.93
2018-07-27T06:36:42.581Z,1017.88
2018-07-27T06:37:42.605Z,1017.93
2018-07-27T06:38:42.637Z,1017.95
2018-07-27T06:39:42.661Z,1017.91
2018-07-27T06:40:42.689Z,1017.88
2018-07-27T06:41:42.723Z,1017.88
2018-07-27T06:42:42.752Z,1017.88
2018-07-27T06:43:42.778Z,1017.85
2018-07-27T06:44:42.808Z,1017.90
2018-07-27T06:45:42.841Z,1017.87
2018-07-27T06:46:42.859Z,1017.85
2018-07-27T06:47:42.889Z,1017.86
2018-07-27T06:48:42.913Z,1017.87
2018-07-27T06:49:42.949Z,1017.87
2018-07-27T06:50:42.969Z,1017.87
2018-07-27T06:51:43.013Z,1017.83
2018-07-27T06:52:43.032Z,1017.87
2018-07-27T06:53:43.056Z,1017.85
2018-07-27T06:54:43.081Z,1017.87
2018-07-27T06:55:43.113Z,1017.84
2018-07-27T06:56:43.140Z,1017.85
2018-07-27T06:57:43.167Z,1017.82
2018-07-27T06:58:43.195Z,1017.83
2018-07-27T06:59:43.224Z,1017.85
2018-07-27T07:00:43.250Z,1017.82
2018-07-27T07:01:43.289Z,1017.83
2018-07-27T07:02:43.307Z,1017.84
2018-07-27T07:03:43.333Z,1017.82
2018-07-27T07:04:43.368Z,1017.80
2018-07-27T07:05:43.395Z,1017.83
2018-07-27T07:06:43.415Z,1017.79
2018-07-27T07:07:43.446Z,1017.83
2018-07-27T07:08:43.480Z,1017.80
2018-07-27T07:09:43.506Z,1017.83
2018-07-27T07:10:43.534Z,1017.86
2018-07-27T07:11:43.564Z,1017.85
2018-07-27T07:12:43.590Z,1017.84
2018-07-27T07:13:43.615Z,1017.83
2018-07-27T07:14:43.653Z,1017.84
2018-07-27T07:15:43.676Z,1017.83
2018-07-27T07:16:43.702Z,1017.80
2018-07-27T07:17:43.722Z,1017.81
2018-07-27T07:18:43.769Z,1017.78
2018-07-27T07:19:43.785Z,1017.76
2018-07-27T07:20:43.812Z,1017.77
2018-07-27T07:21:43.840Z,1017.77
2018-07-27T07:22:43.868Z,1017.74
2018-07-27T07:23:43.897Z,1017.73
2018-07-27T07:24:43.923Z,1017.76
2018-07-27T07:25:43.992Z,1017.73
2018-07-27T07:26:43.984Z,1017.72
2018-07-27T07:27:44.011Z,1017.73
2018-07-27T07:28:44.038Z,1017.70
2018-07-27T07:29:44.066Z,1017.71
2018-07-27T07:30:44.095Z,1017.71
2018-07-27T07:31:44.124Z,1017.71
2018-07-27T07:32:44.154Z,1017.69
2018-07-27T07:33:44.184Z,1017.71
2018-07-27T07:34:44.253Z,1017.70
2018-07-27T07:35:44.235Z,1017.68
2018-07-27T07:36:44.266Z,1017.66
2018-07-27T07:37:44.290Z,1017.67
2018-07-27T07:38:44.316Z,1017.65
2018-07-27T07:39:44.350Z,1017.67
2018-07-27T07:40:44.380Z,1017.63
2018-07-27T07:41:44.403Z,1017.60
2018-07-27T07:42:44.432Z,1017.61
2018-07-27T07:43:44.480Z,1017.54
2018-07-27T07:44:44.493Z,1017.56
2018-07-27T07:45:44.517Z,1017.57
2018-07-27T07:46:44.550Z,1017.54
2018-07-27T07:47:44.578Z,1017.56
2018-07-27T07:48:44.602Z,1017.53
2018-07-27T07:49:44.627Z,1017.52
2018-07-27T07:50:44.658Z,1017.52
2018-07-27T07:51:44.690Z,1017.57
2018-07-27T07:52:44.715Z,1017.55
2018-07-27T07:53:44.744Z,1017.56
2018-07-27T07:54:44.769Z,1017.60
2018-07-27T07:55:44.801Z,1017.59
2018-07-27T07:56:44.830Z,1017.57
2018-07-27T07:57:44.860Z,1017.58
2018-07-27T07:58:44.977Z,1017.57
2018-07-27T07:59:44.912Z,1017.60
2018-07-27T08:00:44.940Z,1017.55
2018-07-27T08:01:44.974Z,1017.59
2018-07-27T08:02:45.000Z,1017.58
2018-07-27T08:03:45.029Z,1017.62
2018-07-27T08:04:45.061Z,1017.61
2018-07-27T08:05:45.087Z,1017.63
2018-07-27T08:06:45.116Z,1017.63
2018-07-27T08:07:45.142Z,1017.63
2018-07-27T08:08:45.176Z,1017.64
2018-07-27T08:09:45.196Z,1017.59
2018-07-27T08:10:45.231Z,1017.61
2018-07-27T08:11:45.255Z,1017.60
2018-07-27T08:12:45.283Z,1017.58
2018-07-27T08:13:45.310Z,1017.56
2018-07-27T08:14:45.349Z,1017.54
2018-07-27T08:15:45.367Z,1017.59
2018-07-27T08:16:45.391Z,1017.53
2018-07-27T08:17:45.427Z,1017.50
2018-07-27T08:18:45.455Z,1017.54
2018-07-27T08:19:45.484Z,1017.48
2018-07-27T08:20:45.518Z,1017.49
2018-07-27T08:21:45.542Z,1017.47
2018-07-27T08:22:45.569Z,1017.49
2018-07-27T08:23:45.603Z,1017.48
2018-07-27T08:24:45.625Z,1017.42
2018-07-27T08:25:45.654Z,1017.46
2018-07-27T08:26:45.678Z,1017.44
2018-07-27T08:27:45.708Z,1017.43
2018-07-27T08:28:45.734Z,1017.42
2018-07-27T08:29:45.770Z,1017.42
2018-07-27T08:30:45.795Z,1017.43
2018-07-27T08:31:45.818Z,1017.40
2018-07-27T08:32:45.854Z,1017.43
2018-07-27T08:33:45.882Z,1017.40
2018-07-27T08:34:45.911Z,1017.44
2018-07-27T08:35:45.943Z,1017.47
2018-07-27T08:36:45.965Z,1017.43
2018-07-27T08:37:45.999Z,1017.42
2018-07-27T08:38:46.028Z,1017.47
2018-07-27T08:39:46.116Z,1017.42
2018-07-27T08:40:46.081Z,1017.43
2018-07-27T08:41:46.117Z,1017.41
2018-07-27T08:42:46.137Z,1017.35
2018-07-27T08:43:46.170Z,1017.36
2018-07-27T08:44:46.198Z,1017.35
2018-07-27T08:45:46.265Z,1017.40
2018-07-27T08:46:46.258Z,1017.37
2018-07-27T08:47:46.284Z,1017.36
2018-07-27T08:48:46.316Z,1017.37
2018-07-27T08:49:46.344Z,1017.35
2018-07-27T08:50:46.381Z,1017.34
2018-07-27T08:51:46.396Z,1017.33
2018-07-27T08:52:46.426Z,1017.33
2018-07-27T08:53:46.456Z,1017.31
2018-07-27T08:54:46.490Z,1017.32
2018-07-27T08:55:46.520Z,1017.33
2018-07-27T08:56:46.562Z,1017.29
2018-07-27T08:57:46.568Z,1017.34
2018-07-27T08:58:46.602Z,1017.32
2018-07-27T08:59:46.627Z,1017.33
2018-07-27T09:00:46.680Z,1017.26
2018-07-27T09:01:46.690Z,1017.27
2018-07-27T09:02:46.726Z,1017.25
2018-07-27T09:03:46.759Z,1017.30
2018-07-27T09:04:46.783Z,1017.23
2018-07-27T09:05:46.797Z,1017.20
2018-07-27T09:06:46.828Z,1017.21
2018-07-27T09:07:46.857Z,1017.15
2018-07-27T09:08:46.886Z,1017.15
2018-07-27T09:09:46.919Z,1017.13
2018-07-27T09:10:46.943Z,1017.12
2018-07-27T09:11:46.976Z,1017.12
2018-07-27T09:12:47.002Z,1017.08
2018-07-27T09:13:47.035Z,1017.14
2018-07-27T09:14:47.067Z,1017.07
2018-07-27T09:15:47.084Z,1017.08
2018-07-27T09:16:47.121Z,1017.14
2018-07-27T09:17:47.144Z,1017.10
2018-07-27T09:18:47.179Z,1017.12
2018-07-27T09:19:47.210Z,1017.12
2018-07-27T09:20:47.235Z,1017.11
2018-07-27T09:21:47.265Z,1017.10
2018-07-27T09:22:47.297Z,1017.12
2018-07-27T09:23:47.323Z,1017.10
2018-07-27T09:24:47.559Z,1017.14
2018-07-27T09:25:47.380Z,1017.08
2018-07-27T09:26:47.411Z,1017.08
2018-07-27T09:27:47.437Z,1017.08
2018-07-27T09:28:47.462Z,1017.07
2018-07-27T09:29:47.493Z,1017.08
2018-07-27T09:30:47.519Z,1017.12
2018-07-27T09:31:47.555Z,1017.09
2018-07-27T09:32:47.584Z,1017.05
2018-07-27T09:33:47.608Z,1017.06
2018-07-27T09:34:47.635Z,1017.09
2018-07-27T09:35:47.668Z,1017.07
2018-07-27T09:36:47.692Z,1017.09
2018-07-27T09:37:47.724Z,1017.12
2018-07-27T09:38:47.757Z,1017.06
2018-07-27T09:39:47.785Z,1017.10
2018-07-27T09:40:47.811Z,1017.05
2018-07-27T09:41:47.838Z,1017.05
2018-07-27T09:42:47.866Z,1017.03
2018-07-27T09:43:47.900Z,1016.99
2018-07-27T09:44:47.925Z,1017.00
2018-07-27T09:45:47.953Z,1016.97
2018-07-27T09:46:47.986Z,1017.02
2018-07-27T09:47:48.017Z,1016.97
2018-07-27T09:48:48.045Z,1016.97
2018-07-27T09:49:48.073Z,1016.92
2018-07-27T09:50:48.108Z,1016.92
2018-07-27T09:51:48.134Z,1016.86
2018-07-27T09:52:48.159Z,1016.90
2018-07-27T09:53:48.239Z,1016.93
2018-07-27T09:54:48.219Z,1016.91
2018-07-27T09:55:48.248Z,1016.93
2018-07-27T09:56:48.277Z,1016.90
2018-07-27T09:57:48.313Z,1016.92
2018-07-27T09:58:48.337Z,1016.91
2018-07-27T09:59:48.365Z,1016.92
2018-07-27T10:00:48.463Z,1016.96
2018-07-27T10:01:48.424Z,1016.87
2018-07-27T10:02:48.463Z,1016.92
2018-07-27T10:03:48.487Z,1016.90
2018-07-27T10:04:48.514Z,1016.79
2018-07-27T10:05:48.596Z,1016.74
2018-07-27T10:06:48.567Z,1016.87
2018-07-27T10:07:48.597Z,1016.84
2018-07-27T10:08:48.635Z,1016.80
2018-07-27T10:09:48.653Z,1016.83
2018-07-27T10:10:48.687Z,1016.85
2018-07-27T10:11:48.718Z,1016.87
2018-07-27T10:12:48.769Z,1016.77
2018-07-27T10:13:48.776Z,1016.79
2018-07-27T10:14:48.807Z,1016.81
2018-07-27T10:15:48.837Z,1016.76
2018-07-27T10:16:48.862Z,1016.75
2018-07-27T10:17:48.893Z,1016.78
2018-07-27T10:18:48.920Z,1016.73
2018-07-27T10:19:48.956Z,1016.72
2018-07-27T10:20:48.976Z,1016.73
2018-07-27T10:21:49.013Z,1016.73
2018-07-27T10:22:49.041Z,1016.71
2018-07-27T10:23:49.073Z,1016.71
2018-07-27T10:24:49.096Z,1016.71
2018-07-27T10:25:49.127Z,1016.67
2018-07-27T10:26:49.156Z,1016.60
2018-07-27T10:27:49.186Z,1016.61
2018-07-27T10:28:49.217Z,1016.58
2018-07-27T10:29:49.253Z,1016.56
2018-07-27T10:30:49.285Z,1016.57
2018-07-27T10:31:49.309Z,1016.53
2018-07-27T10:32:49.337Z,1016.59
2018-07-27T10:33:49.367Z,1016.58
2018-07-27T10:34:49.395Z,1016.58
2018-07-27T10:35:49.420Z,1016.59
2018-07-27T10:36:49.463Z,1016.58
2018-07-27T10:37:49.481Z,1016.59
2018-07-27T10:38:49.512Z,1016.62
2018-07-27T10:39:49.569Z,1016.61
2018-07-27T10:40:49.569Z,1016.63
2018-07-27T10:41:49.608Z,1016.60
2018-07-27T10:42:49.630Z,1016.58
2018-07-27T10:43:49.658Z,1016.58
2018-07-27T10:44:49.749Z,1016.60
2018-07-27T10:45:49.721Z,1016.66
2018-07-27T10:46:49.750Z,1016.60
2018-07-27T10:47:49.783Z,1016.68
2018-07-27T10:48:49.810Z,1016.59
2018-07-27T10:49:49.844Z,1016.58
2018-07-27T10:50:49.868Z,1016.57
2018-07-27T10:51:49.902Z,1016.54
2018-07-27T10:52:49.925Z,1016.51
2018-07-27T10:53:49.958Z,1016.50
2018-07-27T10:54:49.989Z,1016.50
2018-07-27T10:55:50.019Z,1016.53
2018-07-27T10:56:50.058Z,1016.53
2018-07-27T10:57:50.079Z,1016.58
2018-07-27T10:58:50.116Z,1016.54
2018-07-27T10:59:50.141Z,1016.60
2018-07-27T11:00:50.170Z,1016.60
2018-07-27T11:01:50.202Z,1016.62
2018-07-27T11:02:50.232Z,1016.66
2018-07-27T11:03:50.262Z,1016.67
2018-07-27T11:04:50.292Z,1016.70
2018-07-27T11:05:50.323Z,1016.68
2018-07-27T11:06:50.353Z,1016.66
2018-07-27T11:07:50.391Z,1016.65
2018-07-27T11:08:50.478Z,1016.72
2018-07-27T11:09:50.492Z,1016.64
2018-07-27T11:10:50.620Z,1016.66
2018-07-27T11:11:50.531Z,1016.68
2018-07-27T11:12:50.552Z,1016.69
2018-07-27T11:13:50.593Z,1016.67
2018-07-27T11:14:51.029Z,1016.66
2018-07-27T11:15:50.677Z,1016.65
2018-07-27T11:16:50.694Z,1016.64
2018-07-27T11:17:50.750Z,1016.67
2018-07-27T11:18:50.769Z,1016.66
2018-07-27T11:19:50.810Z,1016.67
2018-07-27T11:20:50.838Z,1016.66
2018-07-27T11:21:50.875Z,1016.69
2018-07-27T11:22:50.915Z,1016.65
2018-07-27T11:23:50.955Z,1016.57
2018-07-27T11:24:50.983Z,1016.57
2018-07-27T11:25:51.029Z,1016.63
2018-07-27T11:26:51.060Z,1016.61
2018-07-27T11:27:51.101Z,1016.65
2018-07-27T11:28:51.138Z,1016.66
2018-07-27T11:29:51.181Z,1016.63
2018-07-27T11:30:51.220Z,1016.64
2018-07-27T11:31:51.259Z,1016.56
2018-07-27T11:32:51.296Z,1016.57
2018-07-27T11:33:51.343Z,1016.63
2018-07-27T11:34:51.372Z,1016.60
2018-07-27T11:35:51.412Z,1016.59
2018-07-27T11:36:51.454Z,1016.53
2018-07-27T11:37:51.492Z,1016.53
2018-07-27T11:38:51.531Z,1016.52
2018-07-27T11:39:51.569Z,1016.44
2018-07-27T11:40:51.611Z,1016.45
2018-07-27T11:41:51.651Z,1016.51
2018-07-27T11:42:54.309Z,1016.47
2018-07-27T11:43:51.735Z,1016.43
2018-07-27T11:44:51.780Z,1016.42
2018-07-27T11:45:51.814Z,1016.45
2018-07-27T11:46:51.862Z,1016.49
2018-07-27T11:47:51.899Z,1016.49
2018-07-27T11:48:51.932Z,1016.46
2018-07-27T11:49:51.978Z,1016.43
2018-07-27T11:50:52.017Z,1016.39
2018-07-27T11:51:52.059Z,1016.37
2018-07-27T11:52:52.100Z,1016.37
2018-07-27T11:53:52.140Z,1016.32
2018-07-27T11:54:52.189Z,1016.33
2018-07-27T11:55:52.230Z,1016.37
2018-07-27T11:56:52.267Z,1016.39
2018-07-27T11:57:52.312Z,1016.40
2018-07-27T11:58:52.347Z,1016.35
2018-07-27T11:59:52.398Z,1016.33
2018-07-27T12:00:52.441Z,1016.34
2018-07-27T12:01:52.482Z,1016.29
2018-07-27T12:02:52.517Z,1016.26
2018-07-27T12:03:52.570Z,1016.23
2018-07-27T12:04:52.603Z,1016.27
2018-07-27T12:05:52.646Z,1016.26